首页
METAR-TAF:

METAR-TAF

机场 :

埃皮纳勒, 法国

纬度: 48-19-31N, 经度: 6-04-00E, 海拔: 330米

当前天气观测

该预报发布于40分钟前的22:00 UTC
风速15节,风向北转东北
温度 3°C
湿度 75%
气压 1024 hPa
能见度10公里或以上
多云层高于2200英尺
多云层高于2700英尺
阴天层高于4200英尺
小雨

METAR: LFSG 292200Z AUTO 03015KT 9999 -RA BKN022 BKN027 OVC042 03/M01 Q1024

时间: 00:40 (22:40 UTC)


TAF: 丢失

超过4000个机场的气象观测和天气预报(METAR&TAF报告)。

可查询的气象台以黄色和红色小点在地图上表示。

将鼠标移到小点上方,可查看气象台名称。

然后点击查看天气观测和预报。

如需切换地图:点击带黑十字的绿色按钮放大地图;点击带横线的绿色按钮缩小地图;或者点击绿色箭头查看邻近地区的地图。


METAR-TAF: